Terminal Aerodrome Forecast
Issued by NWS

Home | Current Version | Previous Version | Text Only | Print | Product List | Glossary On
Versions: 1 2 3 4 5 6 7 8 9 10 11 12 13 14 15 16 17 18 19 20 21 22 23 24 25 26 27 28
000
FTUS41 KOKX 201937 AAA
TAFHPN
TAF AMD
KHPN 201937Z 2020/2118 31009KT P6SM SCT045
     FM202300 VRB03KT P6SM SKC
     FM211600 24006KT P6SM FEW050 FEW250
      AMD NOT SKED=

USA.gov is the U.S. government's official web portal to all federal, state and local government web resources and services.